createdAt,value
2022-11-17T00:01:04.676Z,8.85
2022-11-17T00:02:06.056Z,8.85
2022-11-17T00:03:07.848Z,8.88
2022-11-17T00:04:09.248Z,8.88
2022-11-17T00:05:10.598Z,8.91
2022-11-17T00:06:12.065Z,8.89
2022-11-17T00:07:13.425Z,8.87
2022-11-17T00:08:15.074Z,8.88
2022-11-17T00:09:16.405Z,8.88
2022-11-17T00:10:17.813Z,8.90
2022-11-17T00:11:19.160Z,8.90
2022-11-17T00:12:22.630Z,8.87
2022-11-17T00:13:24.330Z,8.87
2022-11-17T00:14:25.643Z,8.88
2022-11-17T00:15:27.012Z,8.90
2022-11-17T00:16:28.352Z,8.87
2022-11-17T00:17:29.691Z,8.87
2022-11-17T00:18:31.046Z,8.85
2022-11-17T00:19:32.382Z,8.86
2022-11-17T00:20:33.692Z,8.91
2022-11-17T00:21:35.184Z,8.92
2022-11-17T00:22:36.502Z,8.90
2022-11-17T00:23:37.884Z,8.87
2022-11-17T00:24:39.236Z,8.87
2022-11-17T00:25:40.546Z,8.88
2022-11-17T00:26:41.888Z,8.90
2022-11-17T00:27:43.441Z,8.90
2022-11-17T00:28:44.843Z,8.86
2022-11-17T00:29:46.215Z,8.84
2022-11-17T00:30:47.552Z,8.85
2022-11-17T00:31:48.908Z,8.88
2022-11-17T00:32:50.226Z,8.86
2022-11-17T00:33:51.593Z,8.88
2022-11-17T00:34:52.951Z,8.88
2022-11-17T00:35:54.841Z,8.85
2022-11-17T00:36:56.928Z,8.83
2022-11-17T00:37:58.267Z,8.83
2022-11-17T00:38:59.580Z,8.81
2022-11-17T00:40:01.479Z,8.81
2022-11-17T00:41:02.917Z,8.80
2022-11-17T00:42:04.300Z,8.81
2022-11-17T00:43:05.640Z,8.83
2022-11-17T00:44:07.508Z,8.83
2022-11-17T00:45:09.057Z,8.83
2022-11-17T00:46:10.433Z,8.86
2022-11-17T00:47:11.817Z,8.84
2022-11-17T00:48:13.132Z,8.84
2022-11-17T00:49:14.445Z,8.85
2022-11-17T00:50:18.825Z,8.84
2022-11-17T00:51:20.298Z,8.81
2022-11-17T00:52:21.605Z,8.81
2022-11-17T00:53:22.908Z,8.81
2022-11-17T00:54:24.313Z,8.86
2022-11-17T00:55:25.676Z,8.86
2022-11-17T00:56:27.657Z,8.87
2022-11-17T00:57:29.015Z,8.88
2022-11-17T00:58:30.425Z,8.86
2022-11-17T00:59:31.780Z,8.88
2022-11-17T01:00:33.136Z,8.88
2022-11-17T01:01:34.675Z,8.94
2022-11-17T01:02:36.099Z,8.91
2022-11-17T01:03:38.063Z,8.91
2022-11-17T01:04:39.546Z,8.88
2022-11-17T01:05:40.942Z,8.87
2022-11-17T01:06:43.616Z,8.87
2022-11-17T01:07:44.986Z,8.86
2022-11-17T01:08:46.397Z,8.86
2022-11-17T01:09:47.715Z,8.88
2022-11-17T01:10:49.071Z,8.93
2022-11-17T01:11:51.338Z,8.98
2022-11-17T01:12:52.705Z,8.99
2022-11-17T01:13:55.405Z,9.04
2022-11-17T01:14:56.723Z,9.06
2022-11-17T01:16:01.571Z,9.04
2022-11-17T01:17:02.945Z,9.04
2022-11-17T01:18:04.384Z,9.04
2022-11-17T01:19:05.759Z,9.03
2022-11-17T01:20:07.562Z,9.09
2022-11-17T01:21:13.934Z,9.13
2022-11-17T01:22:15.354Z,9.12
2022-11-17T01:23:16.720Z,9.11
2022-11-17T01:24:18.145Z,9.10
2022-11-17T01:25:19.514Z,9.10
2022-11-17T01:26:22.083Z,9.12
2022-11-17T01:27:23.420Z,9.21
2022-11-17T01:28:24.801Z,9.19
2022-11-17T01:29:26.132Z,9.16
2022-11-17T01:30:27.588Z,9.12
2022-11-17T01:31:29.832Z,9.13
2022-11-17T01:32:31.211Z,9.13
2022-11-17T01:33:32.683Z,9.16
2022-11-17T01:34:34.332Z,9.16
2022-11-17T01:35:35.673Z,9.12
2022-11-17T01:36:38.237Z,9.11
2022-11-17T01:37:39.615Z,9.09
2022-11-17T01:38:41.281Z,9.05
2022-11-17T01:39:42.636Z,9.06
2022-11-17T01:40:44.008Z,9.06
2022-11-17T01:41:45.448Z,9.07
2022-11-17T01:42:46.758Z,9.08
2022-11-17T01:43:50.209Z,9.04
2022-11-17T01:45:16.520Z,9.03
2022-11-17T01:46:26.857Z,9.01
2022-11-17T01:47:28.203Z,8.97
2022-11-17T01:48:29.577Z,9.04
2022-11-17T01:49:30.978Z,9.06
2022-11-17T01:50:40.382Z,9.05
2022-11-17T01:51:45.068Z,9.04
2022-11-17T01:52:47.072Z,9.02
2022-11-17T01:53:49.453Z,9.03
2022-11-17T01:54:52.242Z,9.02
2022-11-17T01:55:59.335Z,9.04
2022-11-17T01:57:02.819Z,9.05
2022-11-17T01:58:10.431Z,9.07
2022-11-17T01:59:18.528Z,9.06
2022-11-17T02:00:19.925Z,9.11
2022-11-17T02:01:21.302Z,9.09
2022-11-17T02:02:23.330Z,9.09
2022-11-17T02:03:26.041Z,9.11
2022-11-17T02:04:32.375Z,9.12
2022-11-17T02:05:50.961Z,9.12
2022-11-17T02:06:55.943Z,9.12
2022-11-17T02:07:59.536Z,9.12
2022-11-17T02:09:02.610Z,9.10
2022-11-17T02:10:05.220Z,9.11
2022-11-17T02:11:10.250Z,9.07
2022-11-17T02:12:13.095Z,9.09
2022-11-17T02:13:14.565Z,9.09
2022-11-17T02:14:15.909Z,9.08
2022-11-17T02:15:17.272Z,9.07
2022-11-17T02:16:18.599Z,9.06
2022-11-17T02:17:21.051Z,9.03
2022-11-17T02:18:22.399Z,9.08
2022-11-17T02:19:25.097Z,9.06
2022-11-17T02:20:29.525Z,9.08
2022-11-17T02:21:51.101Z,9.09
2022-11-17T02:23:07.169Z,9.17
2022-11-17T02:24:14.217Z,9.12
2022-11-17T02:25:15.601Z,9.12
2022-11-17T02:26:19.680Z,9.08
2022-11-17T02:27:37.743Z,9.07
2022-11-17T02:28:48.595Z,9.05
2022-11-17T02:30:03.459Z,9.09
2022-11-17T02:31:13.737Z,9.07
2022-11-17T02:32:41.522Z,9.07
2022-11-17T02:33:46.031Z,9.01
2022-11-17T02:34:51.641Z,8.97
2022-11-17T02:36:01.087Z,9.03
2022-11-17T02:37:09.560Z,9.02
2022-11-17T02:38:17.401Z,9.07
2022-11-17T02:39:21.093Z,9.04
2022-11-17T02:40:29.807Z,9.00
2022-11-17T02:41:36.068Z,9.01
2022-11-17T02:42:42.375Z,8.99
2022-11-17T02:43:49.001Z,8.98
2022-11-17T02:44:57.328Z,8.92
2022-11-17T02:46:04.756Z,8.92
2022-11-17T02:47:27.278Z,8.91
2022-11-17T02:48:31.997Z,8.88
2022-11-17T02:49:36.337Z,8.91
2022-11-17T02:50:38.410Z,8.87
2022-11-17T02:51:40.829Z,8.82
2022-11-17T02:52:42.335Z,8.77
2022-11-17T02:53:43.924Z,8.75
2022-11-17T02:54:45.337Z,8.76
2022-11-17T02:55:50.779Z,8.74
2022-11-17T02:56:52.261Z,8.76
2022-11-17T02:57:53.591Z,8.71
2022-11-17T02:58:57.991Z,8.74
2022-11-17T03:00:01.765Z,8.74
2022-11-17T03:01:10.376Z,8.73
2022-11-17T03:02:30.317Z,8.75
2022-11-17T03:03:35.076Z,8.74
2022-11-17T03:04:42.961Z,8.73
2022-11-17T03:05:56.731Z,8.70
2022-11-17T03:07:16.935Z,8.66
2022-11-17T03:08:18.292Z,8.65
2022-11-17T03:09:46.029Z,8.67
2022-11-17T03:10:50.332Z,8.63
2022-11-17T03:12:14.670Z,8.64
2022-11-17T03:13:19.145Z,8.64
2022-11-17T03:14:46.880Z,8.65
2022-11-17T03:16:07.023Z,8.69
2022-11-17T03:17:13.661Z,8.70
2022-11-17T03:18:14.956Z,8.72
2022-11-17T03:19:18.858Z,8.71
2022-11-17T03:20:23.593Z,8.70
2022-11-17T03:21:27.953Z,8.74
2022-11-17T03:22:34.071Z,8.79
2022-11-17T03:23:55.018Z,8.86
2022-11-17T03:24:59.423Z,8.86
2022-11-17T03:26:02.345Z,8.88
2022-11-17T03:27:08.249Z,8.88
2022-11-17T03:28:11.096Z,8.89
2022-11-17T03:29:14.852Z,8.92
2022-11-17T03:30:17.329Z,8.93
2022-11-17T03:31:19.521Z,8.98
2022-11-17T03:32:22.489Z,8.98
2022-11-17T03:33:25.491Z,8.99
2022-11-17T03:34:29.149Z,9.00
2022-11-17T03:35:33.566Z,9.01
2022-11-17T03:36:37.124Z,9.00
2022-11-17T03:37:42.081Z,9.04
2022-11-17T03:38:51.724Z,9.06
2022-11-17T03:39:54.955Z,9.08
2022-11-17T03:40:59.267Z,9.12
2022-11-17T03:42:08.056Z,9.16
2022-11-17T03:43:12.041Z,9.16
2022-11-17T03:44:14.748Z,9.14
2022-11-17T03:45:19.632Z,9.12
2022-11-17T03:46:22.063Z,9.08
2022-11-17T03:47:25.962Z,9.09
2022-11-17T03:48:30.343Z,9.08
2022-11-17T03:49:44.834Z,9.07
2022-11-17T03:50:51.811Z,9.05
2022-11-17T03:51:53.288Z,9.06
2022-11-17T03:52:54.790Z,9.06
2022-11-17T03:53:56.406Z,9.06
2022-11-17T03:54:58.028Z,9.07
2022-11-17T03:56:02.403Z,9.07
2022-11-17T03:57:06.731Z,9.06
2022-11-17T03:58:12.701Z,9.05
2022-11-17T03:59:17.417Z,9.05
2022-11-17T04:00:19.290Z,9.11
2022-11-17T04:01:22.648Z,9.10
2022-11-17T04:02:24.758Z,9.08
2022-11-17T04:03:32.861Z,9.08
2022-11-17T04:04:34.417Z,9.07
2022-11-17T04:05:35.785Z,9.09
2022-11-17T04:06:37.158Z,9.11
2022-11-17T04:07:45.917Z,9.14
2022-11-17T04:08:47.340Z,9.15
2022-11-17T04:09:48.714Z,9.16
2022-11-17T04:10:50.044Z,9.16
2022-11-17T04:11:51.382Z,9.12
2022-11-17T04:12:53.333Z,9.08
2022-11-17T04:13:54.711Z,9.06
2022-11-17T04:14:56.037Z,9.12
2022-11-17T04:15:57.513Z,9.12
2022-11-17T04:16:58.820Z,9.09
2022-11-17T04:18:00.189Z,9.13
2022-11-17T04:19:01.525Z,9.14
2022-11-17T04:20:02.948Z,9.19
2022-11-17T04:21:04.392Z,9.20
2022-11-17T04:22:05.706Z,9.25
2022-11-17T04:23:13.942Z,9.28
2022-11-17T04:24:15.357Z,9.27
2022-11-17T04:25:16.674Z,9.31
2022-11-17T04:26:18.021Z,9.31
2022-11-17T04:27:19.366Z,9.30
2022-11-17T04:28:21.283Z,9.31
2022-11-17T04:29:22.612Z,9.34
2022-11-17T04:30:23.924Z,9.33
2022-11-17T04:31:28.036Z,9.35
2022-11-17T04:32:29.377Z,9.35
2022-11-17T04:33:30.843Z,9.34
2022-11-17T04:34:32.182Z,9.37
2022-11-17T04:35:33.525Z,9.42
2022-11-17T04:36:38.589Z,9.43
2022-11-17T04:37:39.914Z,9.41
2022-11-17T04:38:42.037Z,9.41
2022-11-17T04:39:44.452Z,9.42
2022-11-17T04:40:45.807Z,9.40
2022-11-17T04:41:47.202Z,9.38
2022-11-17T04:42:48.548Z,9.40
2022-11-17T04:43:50.226Z,9.39
2022-11-17T04:44:51.620Z,9.43
2022-11-17T04:45:57.728Z,9.44
2022-11-17T04:46:59.164Z,9.52
2022-11-17T04:48:00.549Z,9.51
2022-11-17T04:49:02.436Z,9.49
2022-11-17T04:50:03.875Z,9.48
2022-11-17T04:51:05.316Z,9.48
2022-11-17T04:52:06.641Z,9.45
2022-11-17T04:53:07.986Z,9.46
2022-11-17T04:54:10.193Z,9.54
2022-11-17T04:55:11.543Z,9.54
2022-11-17T04:56:12.926Z,9.57
2022-11-17T04:57:14.296Z,9.54
2022-11-17T04:58:15.655Z,9.53
2022-11-17T04:59:17.313Z,9.56
2022-11-17T05:00:18.882Z,9.55
2022-11-17T05:01:21.151Z,9.55
2022-11-17T05:02:22.540Z,9.53
2022-11-17T05:03:23.880Z,9.54
2022-11-17T05:04:25.600Z,9.50
2022-11-17T05:05:27.000Z,9.50
2022-11-17T05:06:29.547Z,9.51
2022-11-17T05:07:30.946Z,9.51
2022-11-17T05:08:32.361Z,9.51
2022-11-17T05:09:33.759Z,9.50
2022-11-17T05:10:35.215Z,9.50
2022-11-17T05:11:36.569Z,9.49
2022-11-17T05:12:37.941Z,9.50
2022-11-17T05:13:39.377Z,9.51
2022-11-17T05:14:40.740Z,9.50
2022-11-17T05:15:42.165Z,9.49
2022-11-17T05:16:43.518Z,9.47
2022-11-17T05:17:44.855Z,9.49
2022-11-17T05:18:46.180Z,9.48
2022-11-17T05:19:48.057Z,9.49
2022-11-17T05:20:49.420Z,9.52
2022-11-17T05:21:50.764Z,9.48
2022-11-17T05:22:52.124Z,9.50
2022-11-17T05:23:53.439Z,9.48
2022-11-17T05:24:55.241Z,9.51
2022-11-17T05:25:56.589Z,9.50
2022-11-17T05:26:57.954Z,9.50
2022-11-17T05:27:59.306Z,9.44
2022-11-17T05:29:04.545Z,9.49
2022-11-17T05:30:07.300Z,9.48
2022-11-17T05:31:08.861Z,9.45
2022-11-17T05:32:10.205Z,9.47
2022-11-17T05:33:11.529Z,9.45
2022-11-17T05:34:13.712Z,9.43
2022-11-17T05:35:15.111Z,9.41
2022-11-17T05:36:16.805Z,9.40
2022-11-17T05:37:18.135Z,9.43
2022-11-17T05:38:19.553Z,9.40
2022-11-17T05:39:21.050Z,9.37
2022-11-17T05:40:22.457Z,9.35
2022-11-17T05:41:24.201Z,9.37
2022-11-17T05:42:25.633Z,9.37
2022-11-17T05:43:27.117Z,9.39
2022-11-17T05:44:28.513Z,9.38
2022-11-17T05:45:29.895Z,9.40
2022-11-17T05:46:31.374Z,9.40
2022-11-17T05:47:32.722Z,9.43
2022-11-17T05:48:34.131Z,9.42
2022-11-17T05:49:35.511Z,9.46
2022-11-17T05:50:36.885Z,9.45
2022-11-17T05:51:38.275Z,9.47
2022-11-17T05:52:39.640Z,9.48
2022-11-17T05:53:41.021Z,9.51
2022-11-17T05:54:42.422Z,9.54
2022-11-17T05:55:43.834Z,9.60
2022-11-17T05:56:56.769Z,9.66
2022-11-17T05:58:01.453Z,9.68
2022-11-17T05:59:26.351Z,9.71
2022-11-17T06:00:29.566Z,9.73
2022-11-17T06:01:34.913Z,9.69
2022-11-17T06:02:41.161Z,9.68
2022-11-17T06:03:46.336Z,9.73
2022-11-17T06:04:49.283Z,9.68
2022-11-17T06:05:51.234Z,9.68
2022-11-17T06:06:54.209Z,9.67
2022-11-17T06:07:55.641Z,9.65
2022-11-17T06:08:57.033Z,9.68
2022-11-17T06:09:58.442Z,9.74
2022-11-17T06:10:59.822Z,9.73
2022-11-17T06:12:05.891Z,9.69
2022-11-17T06:13:07.829Z,9.67
2022-11-17T06:14:09.219Z,9.65
2022-11-17T06:15:10.590Z,9.66
2022-11-17T06:16:13.573Z,9.71
2022-11-17T06:17:22.844Z,9.69
2022-11-17T06:18:26.574Z,9.68
2022-11-17T06:19:31.193Z,9.72
2022-11-17T06:20:34.845Z,9.72
2022-11-17T06:21:56.799Z,9.76
2022-11-17T06:23:00.381Z,9.84
2022-11-17T06:24:03.404Z,9.85
2022-11-17T06:25:05.523Z,9.87
2022-11-17T06:26:08.837Z,9.86
2022-11-17T06:27:15.431Z,9.87
2022-11-17T06:28:19.496Z,9.90
2022-11-17T06:29:20.896Z,9.92
2022-11-17T06:30:22.354Z,9.97
2022-11-17T06:31:25.276Z,9.99
2022-11-17T06:32:27.555Z,10.01
2022-11-17T06:33:30.777Z,10.00
2022-11-17T06:34:32.122Z,9.99
2022-11-17T06:35:33.912Z,9.96
2022-11-17T06:36:35.293Z,9.98
2022-11-17T06:37:36.632Z,9.97
2022-11-17T06:38:37.980Z,10.02
2022-11-17T06:39:39.369Z,10.03
2022-11-17T06:40:40.752Z,10.08
2022-11-17T06:41:42.067Z,10.07
2022-11-17T06:42:43.506Z,10.04
2022-11-17T06:43:44.884Z,10.02
2022-11-17T06:44:46.199Z,10.03
2022-11-17T06:45:47.763Z,10.00
2022-11-17T06:46:49.491Z,10.03
2022-11-17T06:47:52.650Z,9.97
2022-11-17T06:48:54.329Z,9.95
2022-11-17T06:49:55.647Z,9.97
2022-11-17T06:50:57.007Z,10.01
2022-11-17T06:51:58.356Z,10.07
2022-11-17T06:53:00.719Z,10.07
2022-11-17T06:54:04.979Z,10.06
2022-11-17T06:55:06.740Z,10.05
2022-11-17T06:56:08.171Z,10.05
2022-11-17T06:57:09.581Z,10.09
2022-11-17T06:58:11.065Z,10.10
2022-11-17T06:59:12.507Z,10.12
2022-11-17T07:00:14.226Z,10.14
2022-11-17T07:01:15.938Z,10.11
2022-11-17T07:02:17.393Z,10.10
2022-11-17T07:03:18.793Z,10.10
2022-11-17T07:04:20.241Z,10.19
2022-11-17T07:05:21.683Z,10.16
2022-11-17T07:06:23.096Z,10.18
2022-11-17T07:07:24.539Z,10.19
2022-11-17T07:08:26.074Z,10.16
2022-11-17T07:09:27.430Z,10.16
2022-11-17T07:10:29.718Z,10.15
2022-11-17T07:11:31.192Z,10.19
2022-11-17T07:12:33.222Z,10.18
2022-11-17T07:13:35.229Z,10.20
2022-11-17T07:14:36.652Z,10.22
2022-11-17T07:15:38.060Z,10.27
2022-11-17T07:16:41.311Z,10.26
2022-11-17T07:17:42.700Z,10.23
2022-11-17T07:18:44.111Z,10.24
2022-11-17T07:19:45.529Z,10.23
2022-11-17T07:20:47.717Z,10.22
2022-11-17T07:21:49.104Z,10.22
2022-11-17T07:22:50.543Z,10.23
2022-11-17T07:24:04.626Z,10.25
2022-11-17T07:26:24.771Z,10.29
2022-11-17T07:27:26.207Z,10.30
2022-11-17T07:28:28.466Z,10.32
2022-11-17T07:29:29.908Z,10.33
2022-11-17T07:30:31.330Z,10.37
2022-11-17T07:31:34.524Z,10.45
2022-11-17T07:32:36.308Z,10.47
2022-11-17T07:33:37.728Z,10.53
2022-11-17T07:34:39.403Z,10.51
2022-11-17T07:35:40.782Z,10.53
2022-11-17T07:36:42.236Z,10.56
2022-11-17T07:37:43.658Z,10.59
2022-11-17T07:38:45.377Z,10.60
2022-11-17T07:39:46.804Z,10.61
2022-11-17T07:40:48.240Z,10.62
2022-11-17T07:41:49.704Z,10.60
2022-11-17T07:42:51.099Z,10.61
2022-11-17T07:43:53.145Z,10.62
2022-11-17T07:44:54.531Z,10.65
2022-11-17T07:45:56.300Z,10.66
2022-11-17T07:46:57.746Z,10.67
2022-11-17T07:48:00.197Z,10.69
2022-11-17T07:49:01.562Z,10.69
2022-11-17T07:50:03.056Z,10.68
2022-11-17T07:51:04.786Z,10.68
2022-11-17T07:52:06.250Z,10.70
2022-11-17T07:53:07.635Z,10.69
2022-11-17T07:54:09.064Z,10.69
2022-11-17T07:55:10.445Z,10.70
2022-11-17T07:56:12.150Z,10.72
2022-11-17T07:57:14.374Z,10.73
2022-11-17T07:58:15.814Z,10.77
2022-11-17T07:59:21.194Z,10.79
2022-11-17T08:00:22.963Z,10.80
2022-11-17T08:01:24.393Z,10.81
2022-11-17T08:02:25.780Z,10.82
2022-11-17T08:03:27.218Z,10.84
2022-11-17T08:04:28.632Z,10.88
2022-11-17T08:05:30.712Z,10.87
2022-11-17T08:06:32.128Z,10.88
2022-11-17T08:07:33.590Z,10.86
2022-11-17T08:08:35.878Z,10.82
2022-11-17T08:09:37.536Z,10.91
2022-11-17T08:10:38.992Z,10.89
2022-11-17T08:11:40.444Z,10.93
2022-11-17T08:12:41.871Z,10.89
2022-11-17T08:13:43.436Z,10.95
2022-11-17T08:14:44.888Z,10.94
2022-11-17T08:15:46.256Z,10.97
2022-11-17T08:16:47.664Z,10.97
2022-11-17T08:17:55.934Z,10.94
2022-11-17T08:18:57.633Z,10.97
2022-11-17T08:19:59.045Z,10.97
2022-11-17T08:21:05.159Z,10.97
2022-11-17T08:22:06.587Z,10.99
2022-11-17T08:23:07.994Z,11.01
2022-11-17T08:24:11.796Z,11.01
2022-11-17T08:25:13.268Z,11.05
2022-11-17T08:26:14.678Z,11.08
2022-11-17T08:27:16.092Z,11.10
2022-11-17T08:28:17.544Z,11.12
2022-11-17T08:29:19.160Z,11.13
2022-11-17T08:30:20.683Z,11.15
2022-11-17T08:31:22.097Z,11.15
2022-11-17T08:32:23.470Z,11.17
2022-11-17T08:33:24.914Z,11.19
2022-11-17T08:34:26.353Z,11.20
2022-11-17T08:35:30.689Z,11.21
2022-11-17T08:36:34.414Z,11.21
2022-11-17T08:37:39.904Z,11.24
2022-11-17T08:38:41.289Z,11.25
2022-11-17T08:39:42.733Z,11.34
2022-11-17T08:40:44.248Z,11.37
2022-11-17T08:41:45.672Z,11.40
2022-11-17T08:42:47.468Z,11.44
2022-11-17T08:43:50.615Z,11.46
2022-11-17T08:44:52.300Z,11.49
2022-11-17T08:45:53.828Z,11.52
2022-11-17T08:46:55.211Z,11.54
2022-11-17T08:47:56.655Z,11.63
2022-11-17T08:48:58.034Z,11.64
2022-11-17T08:49:59.504Z,11.70
2022-11-17T08:51:05.023Z,11.71
2022-11-17T08:52:06.450Z,11.71
2022-11-17T08:53:12.842Z,11.74
2022-11-17T08:54:14.307Z,11.74
2022-11-17T08:55:15.876Z,11.75
2022-11-17T08:56:18.492Z,11.74
2022-11-17T08:57:19.938Z,11.77
2022-11-17T08:58:21.320Z,11.76
2022-11-17T08:59:22.749Z,11.75
2022-11-17T09:00:24.168Z,11.71
2022-11-17T09:01:25.632Z,11.77
2022-11-17T09:02:27.039Z,11.75
2022-11-17T09:03:28.431Z,11.74
2022-11-17T09:04:29.816Z,11.70
2022-11-17T09:05:31.255Z,11.64
2022-11-17T09:06:32.673Z,11.66
2022-11-17T09:07:35.017Z,11.65
2022-11-17T09:08:51.871Z,11.64
2022-11-17T09:09:53.375Z,11.67
2022-11-17T09:10:54.739Z,11.68
2022-11-17T09:11:56.127Z,11.70
2022-11-17T09:12:57.996Z,11.73
2022-11-17T09:13:59.425Z,11.79
2022-11-17T09:15:00.818Z,11.82
2022-11-17T09:16:06.575Z,11.83
2022-11-17T09:17:08.031Z,11.91
2022-11-17T09:18:09.404Z,11.92
2022-11-17T09:19:10.831Z,11.97
2022-11-17T09:20:12.216Z,12.07
2022-11-17T09:21:14.917Z,12.07
2022-11-17T09:22:16.302Z,12.13
2022-11-17T09:23:17.634Z,12.14
2022-11-17T09:24:19.054Z,12.16
2022-11-17T09:25:20.388Z,12.20
2022-11-17T09:26:21.909Z,12.21
2022-11-17T09:27:23.268Z,12.20
2022-11-17T09:28:25.290Z,12.23
2022-11-17T09:29:26.677Z,12.20
2022-11-17T09:30:28.090Z,12.27
2022-11-17T09:31:29.840Z,12.26
2022-11-17T09:32:33.444Z,12.31
2022-11-17T09:33:35.377Z,12.37
2022-11-17T09:34:36.740Z,12.30
2022-11-17T09:35:38.180Z,12.31
2022-11-17T09:36:39.569Z,12.31
2022-11-17T09:37:40.934Z,12.25
2022-11-17T09:38:42.376Z,12.25
2022-11-17T09:39:43.717Z,12.27
2022-11-17T09:40:45.351Z,12.26
2022-11-17T09:41:48.011Z,12.33
2022-11-17T09:42:49.433Z,12.29
2022-11-17T09:43:54.522Z,12.26
2022-11-17T09:44:55.855Z,12.30
2022-11-17T09:46:11.791Z,12.30
2022-11-17T09:47:19.344Z,12.33
2022-11-17T09:48:40.783Z,12.40
2022-11-17T09:49:58.433Z,12.44
2022-11-17T09:51:02.108Z,12.40
2022-11-17T09:52:10.762Z,12.37
2022-11-17T09:53:15.359Z,12.37
2022-11-17T09:54:21.493Z,12.37
2022-11-17T09:55:22.892Z,12.35
2022-11-17T09:56:26.140Z,12.36
2022-11-17T09:57:36.638Z,12.39
2022-11-17T09:58:41.100Z,12.39
2022-11-17T09:59:42.539Z,12.39
2022-11-17T10:00:45.487Z,12.41
2022-11-17T10:01:46.926Z,12.41
2022-11-17T10:02:48.699Z,12.41
2022-11-17T10:03:51.158Z,12.40
2022-11-17T10:04:52.703Z,12.43
2022-11-17T10:05:55.055Z,12.42
2022-11-17T10:06:57.246Z,12.43
2022-11-17T10:08:11.146Z,12.42
2022-11-17T10:09:12.505Z,12.43
2022-11-17T10:10:19.830Z,12.42
2022-11-17T10:11:21.250Z,12.47
2022-11-17T10:12:25.587Z,12.52
2022-11-17T10:13:30.629Z,12.60
2022-11-17T10:14:33.945Z,12.62
2022-11-17T10:15:47.382Z,12.66
2022-11-17T10:16:55.884Z,12.72
2022-11-17T10:17:57.294Z,12.72
2022-11-17T10:18:58.779Z,12.78
2022-11-17T10:20:00.162Z,12.83
2022-11-17T10:21:02.203Z,12.88
2022-11-17T10:22:03.578Z,12.86
2022-11-17T10:23:05.111Z,12.89
2022-11-17T10:24:06.680Z,12.95
2022-11-17T10:25:20.725Z,12.98
2022-11-17T10:26:22.080Z,13.03
2022-11-17T10:27:25.033Z,13.05
2022-11-17T10:28:31.169Z,13.08
2022-11-17T10:29:32.726Z,13.12
2022-11-17T10:30:34.240Z,13.14
2022-11-17T10:31:42.997Z,13.14
2022-11-17T10:32:48.796Z,13.18
2022-11-17T10:33:50.701Z,13.19
2022-11-17T10:34:52.234Z,13.18
2022-11-17T10:35:56.428Z,13.18
2022-11-17T10:37:02.404Z,13.18
2022-11-17T10:38:12.691Z,13.25
2022-11-17T10:39:31.692Z,13.24
2022-11-17T10:40:38.994Z,13.25
2022-11-17T10:41:44.187Z,13.28
2022-11-17T10:42:53.899Z,13.28
2022-11-17T10:44:03.044Z,13.29
2022-11-17T10:45:05.153Z,13.27
2022-11-17T10:46:13.123Z,13.27
2022-11-17T10:47:27.884Z,13.27
2022-11-17T10:48:30.888Z,13.29
2022-11-17T10:49:36.463Z,13.28
2022-11-17T10:50:37.896Z,13.25
2022-11-17T10:51:39.238Z,13.32
2022-11-17T10:52:40.637Z,13.29
2022-11-17T10:53:46.164Z,13.36
2022-11-17T10:54:48.307Z,13.39
2022-11-17T10:56:10.008Z,13.38
2022-11-17T10:57:22.714Z,13.42
2022-11-17T10:58:27.880Z,13.41
2022-11-17T10:59:33.249Z,13.38
2022-11-17T11:00:36.138Z,13.36
2022-11-17T11:01:39.257Z,13.37
2022-11-17T11:02:40.629Z,13.43
2022-11-17T11:03:48.972Z,13.43
2022-11-17T11:05:04.620Z,13.46
2022-11-17T11:06:26.268Z,13.43
2022-11-17T11:07:27.765Z,13.44
2022-11-17T11:08:35.091Z,13.41
2022-11-17T11:09:59.550Z,13.41
2022-11-17T11:11:02.714Z,13.43
2022-11-17T11:12:07.294Z,13.44
2022-11-17T11:13:27.566Z,13.41
2022-11-17T11:14:36.687Z,13.45
2022-11-17T11:15:38.575Z,13.53
2022-11-17T11:16:45.042Z,13.60
2022-11-17T11:17:49.588Z,13.64
2022-11-17T11:18:52.049Z,13.70
2022-11-17T11:19:53.881Z,13.79
2022-11-17T11:20:55.270Z,13.85
2022-11-17T11:22:20.812Z,13.88
2022-11-17T11:23:28.552Z,13.95
2022-11-17T11:24:36.490Z,13.95
2022-11-17T11:25:41.390Z,13.89
2022-11-17T11:26:42.771Z,13.85
2022-11-17T11:28:02.543Z,13.81
2022-11-17T11:29:42.693Z,13.84
2022-11-17T11:30:46.546Z,13.77
2022-11-17T11:31:58.129Z,13.76
2022-11-17T11:33:13.700Z,13.71
2022-11-17T11:34:27.221Z,13.67
2022-11-17T11:35:28.554Z,13.69
2022-11-17T11:36:48.400Z,13.72
2022-11-17T11:38:02.053Z,13.76
2022-11-17T11:39:18.073Z,13.77
2022-11-17T11:40:25.750Z,13.74
2022-11-17T11:41:45.275Z,13.71
2022-11-17T11:42:56.158Z,13.71
2022-11-17T11:44:15.906Z,13.75
2022-11-17T11:45:20.122Z,13.75
2022-11-17T11:46:21.430Z,13.75
2022-11-17T11:47:34.094Z,13.76
2022-11-17T11:48:36.963Z,13.76
2022-11-17T11:49:56.460Z,13.78
2022-11-17T11:50:58.826Z,13.78
2022-11-17T11:52:02.469Z,13.80
2022-11-17T11:53:03.833Z,13.80
2022-11-17T11:54:10.282Z,13.85
2022-11-17T11:55:18.923Z,13.87
2022-11-17T11:56:38.522Z,13.87
2022-11-17T11:57:45.853Z,13.94
2022-11-17T11:58:57.036Z,14.00
2022-11-17T12:00:06.241Z,14.03
2022-11-17T12:01:08.374Z,14.11
2022-11-17T12:02:12.887Z,14.11
2022-11-17T12:03:29.441Z,14.08
2022-11-17T12:04:41.754Z,14.12
2022-11-17T12:06:07.497Z,14.04
2022-11-17T12:07:08.942Z,13.93
2022-11-17T12:08:33.531Z,13.89
2022-11-17T12:09:53.502Z,13.82
2022-11-17T12:11:01.491Z,13.77
2022-11-17T12:12:07.726Z,13.74
2022-11-17T12:13:13.303Z,13.70
2022-11-17T12:14:17.039Z,13.67
2022-11-17T12:15:18.446Z,13.70
2022-11-17T12:16:27.081Z,13.72
2022-11-17T12:17:28.512Z,13.67
2022-11-17T12:18:31.111Z,13.63
2022-11-17T12:19:47.967Z,13.61
2022-11-17T12:21:00.524Z,13.63
2022-11-17T12:22:01.923Z,13.58
2022-11-17T12:23:06.152Z,13.57
2022-11-17T12:24:16.610Z,13.53
2022-11-17T12:25:19.475Z,13.58
2022-11-17T12:26:27.397Z,13.60
2022-11-17T12:27:34.878Z,13.61
2022-11-17T12:28:40.525Z,13.62
2022-11-17T12:29:45.941Z,13.69
2022-11-17T12:30:47.313Z,13.66
2022-11-17T12:32:01.768Z,13.65
2022-11-17T12:33:04.070Z,13.69
2022-11-17T12:34:11.378Z,13.71
2022-11-17T12:35:31.201Z,13.72
2022-11-17T12:36:33.315Z,13.75
2022-11-17T12:37:34.718Z,13.75
2022-11-17T12:38:39.320Z,13.81
2022-11-17T12:40:06.873Z,13.81
2022-11-17T12:41:08.277Z,13.85
2022-11-17T12:42:09.644Z,13.88
2022-11-17T12:43:24.685Z,13.94
2022-11-17T12:44:32.074Z,14.03
2022-11-17T12:45:53.390Z,14.08
2022-11-17T12:47:02.367Z,14.14
2022-11-17T12:48:32.408Z,14.19
2022-11-17T12:49:34.461Z,14.17
2022-11-17T12:50:36.066Z,14.16
2022-11-17T12:51:43.781Z,14.19
2022-11-17T12:53:01.120Z,14.25
2022-11-17T12:54:11.318Z,14.23
2022-11-17T12:55:19.554Z,14.28
2022-11-17T12:56:27.105Z,14.36
2022-11-17T12:57:32.038Z,14.36
2022-11-17T12:58:48.599Z,14.38
2022-11-17T13:00:02.656Z,14.33
2022-11-17T13:01:13.122Z,14.31
2022-11-17T13:02:33.105Z,14.32
2022-11-17T13:03:42.816Z,14.32
2022-11-17T13:04:52.878Z,14.33
2022-11-17T13:06:33.602Z,14.32
2022-11-17T13:07:28.812Z,14.31
2022-11-17T13:08:30.396Z,14.33
2022-11-17T13:09:33.700Z,14.27
2022-11-17T13:10:35.098Z,14.24
2022-11-17T13:11:36.877Z,14.20
2022-11-17T13:12:38.254Z,14.26
2022-11-17T13:13:45.506Z,14.28
2022-11-17T13:14:52.939Z,14.22
2022-11-17T13:15:58.902Z,14.16
2022-11-17T13:17:04.416Z,14.20
2022-11-17T13:18:29.359Z,14.15
2022-11-17T13:19:38.240Z,14.13
2022-11-17T13:20:40.115Z,14.07
2022-11-17T13:21:45.175Z,14.05
2022-11-17T13:22:59.085Z,14.04
2022-11-17T13:24:00.540Z,14.05
2022-11-17T13:25:16.730Z,14.04
2022-11-17T13:26:22.918Z,14.06
2022-11-17T13:27:28.887Z,14.05
2022-11-17T13:28:31.682Z,14.04
2022-11-17T13:29:33.630Z,14.05
2022-11-17T13:30:35.057Z,14.03
2022-11-17T13:31:36.832Z,14.02
2022-11-17T13:32:41.844Z,14.03
2022-11-17T13:33:43.459Z,14.02
2022-11-17T13:34:45.601Z,14.02
2022-11-17T13:35:47.040Z,14.00
2022-11-17T13:36:52.635Z,14.04
2022-11-17T13:38:20.992Z,14.11
2022-11-17T13:39:27.101Z,14.21
2022-11-17T13:40:29.532Z,14.29
2022-11-17T13:41:37.422Z,14.33
2022-11-17T13:42:39.012Z,14.42
2022-11-17T13:43:40.547Z,14.50
2022-11-17T13:44:41.927Z,14.59
2022-11-17T13:45:43.532Z,14.66
2022-11-17T13:46:45.082Z,14.70
2022-11-17T13:47:49.781Z,14.77
2022-11-17T13:48:51.419Z,14.82
2022-11-17T13:49:52.749Z,14.85
2022-11-17T13:50:54.196Z,14.93
2022-11-17T13:51:55.643Z,14.97
2022-11-17T13:53:02.564Z,15.02
2022-11-17T13:54:15.210Z,15.05
2022-11-17T13:55:18.564Z,15.07
2022-11-17T13:56:21.167Z,15.04
2022-11-17T13:57:25.159Z,15.01
2022-11-17T13:58:39.278Z,14.99
2022-11-17T13:59:41.029Z,15.00
2022-11-17T14:00:50.295Z,14.93
2022-11-17T14:02:10.224Z,14.91
2022-11-17T14:03:31.311Z,14.88
2022-11-17T14:04:33.889Z,14.79